createdAt,value
2022-12-26T00:00:37.594Z,3.70
2022-12-26T00:01:41.638Z,2.97
2022-12-26T00:02:44.319Z,3.10
2022-12-26T00:03:46.082Z,3.00
2022-12-26T00:04:53.264Z,3.17
2022-12-26T00:05:59.255Z,3.40
2022-12-26T00:07:01.687Z,3.20
2022-12-26T00:08:03.638Z,3.30
2022-12-26T00:09:08.267Z,3.50
2022-12-26T00:10:10.172Z,3.22
2022-12-26T00:11:13.301Z,3.25
2022-12-26T00:12:15.867Z,3.22
2022-12-26T00:13:38.498Z,3.03
2022-12-26T00:14:42.915Z,3.00
2022-12-26T00:15:46.899Z,3.10
2022-12-26T00:16:53.390Z,2.65
2022-12-26T00:17:55.064Z,2.97
2022-12-26T00:18:58.903Z,2.65
2022-12-26T00:20:01.825Z,2.83
2022-12-26T00:21:06.175Z,2.92
2022-12-26T00:22:07.723Z,3.30
2022-12-26T00:23:10.204Z,2.60
2022-12-26T00:24:13.559Z,3.08
2022-12-26T00:25:16.297Z,2.67
2022-12-26T00:26:19.797Z,2.45
2022-12-26T00:27:22.294Z,2.40
2022-12-26T00:28:23.854Z,2.40
2022-12-26T00:29:26.494Z,2.38
2022-12-26T00:30:28.384Z,2.40
2022-12-26T00:31:33.732Z,2.80
2022-12-26T00:32:35.277Z,2.65
2022-12-26T00:33:38.506Z,2.65
2022-12-26T00:34:40.829Z,2.50
2022-12-26T00:35:45.215Z,1.77
2022-12-26T00:36:50.840Z,2.45
2022-12-26T00:37:56.116Z,2.38
2022-12-26T00:38:59.917Z,2.50
2022-12-26T00:40:02.681Z,2.47
2022-12-26T00:41:04.714Z,2.20
2022-12-26T00:42:07.364Z,2.53
2022-12-26T00:43:09.019Z,2.60
2022-12-26T00:44:11.527Z,2.55
2022-12-26T00:45:13.052Z,2.50
2022-12-26T00:46:16.311Z,2.80
2022-12-26T00:47:18.928Z,2.60
2022-12-26T00:48:20.432Z,2.88
2022-12-26T00:49:22.866Z,1.95
2022-12-26T00:50:27.157Z,2.92
2022-12-26T00:51:32.085Z,2.50
2022-12-26T00:52:34.924Z,2.28
2022-12-26T00:53:37.495Z,2.45
2022-12-26T00:54:39.074Z,2.67
2022-12-26T00:55:41.481Z,2.90
2022-12-26T00:56:43.012Z,2.97
2022-12-26T00:57:45.608Z,2.40
2022-12-26T00:58:47.135Z,2.30
2022-12-26T00:59:49.717Z,2.45
2022-12-26T01:00:51.597Z,2.58
2022-12-26T01:01:54.178Z,2.65
2022-12-26T01:02:56.003Z,2.78
2022-12-26T01:04:01.777Z,2.40
2022-12-26T01:05:03.833Z,2.38
2022-12-26T01:06:06.537Z,2.50
2022-12-26T01:07:10.903Z,2.40
2022-12-26T01:08:22.616Z,2.47
2022-12-26T01:09:27.198Z,2.60
2022-12-26T01:10:28.712Z,2.60
2022-12-26T01:11:43.102Z,2.95
2022-12-26T01:12:44.608Z,2.60
2022-12-26T01:13:47.049Z,2.22
2022-12-26T01:14:48.543Z,2.60
2022-12-26T01:15:51.783Z,2.70
2022-12-26T01:16:54.388Z,2.53
2022-12-26T01:17:56.201Z,2.50
2022-12-26T01:18:58.887Z,2.60
2022-12-26T01:20:00.920Z,2.10
2022-12-26T01:21:05.806Z,3.05
2022-12-26T01:22:07.289Z,2.58
2022-12-26T01:23:11.758Z,2.50
2022-12-26T01:24:15.569Z,2.40
2022-12-26T01:25:20.173Z,2.50
2022-12-26T01:26:22.666Z,2.42
2022-12-26T01:27:25.867Z,2.30
2022-12-26T01:28:28.320Z,2.47
2022-12-26T01:29:29.862Z,2.20
2022-12-26T01:30:32.268Z,2.40
2022-12-26T01:31:33.802Z,2.38
2022-12-26T01:32:36.292Z,2.20
2022-12-26T01:33:37.811Z,2.40
2022-12-26T01:34:40.257Z,2.30
2022-12-26T01:35:50.226Z,2.28
2022-12-26T01:36:54.307Z,2.70
2022-12-26T01:37:56.502Z,2.30
2022-12-26T01:38:58.983Z,2.50
2022-12-26T01:40:01.877Z,2.15
2022-12-26T01:41:20.880Z,2.10
2022-12-26T01:42:25.151Z,2.15
2022-12-26T01:43:27.603Z,2.33
2022-12-26T01:45:10.033Z,2.03
2022-12-26T01:46:11.595Z,2.00
2022-12-26T01:47:14.299Z,1.85
2022-12-26T01:48:20.857Z,2.33
2022-12-26T01:49:32.763Z,2.00
2022-12-26T01:50:40.801Z,2.10
2022-12-26T01:51:48.265Z,1.67
2022-12-26T01:52:58.394Z,2.35
2022-12-26T01:54:37.990Z,1.90
2022-12-26T01:55:33.002Z,2.00
2022-12-26T01:56:41.048Z,1.65
2022-12-26T01:57:47.538Z,1.75
2022-12-26T01:58:54.213Z,1.83
2022-12-26T01:59:58.458Z,1.85
2022-12-26T02:01:04.613Z,1.63
2022-12-26T02:02:06.796Z,1.83
2022-12-26T02:03:28.047Z,2.00
2022-12-26T02:04:54.997Z,1.90
2022-12-26T02:06:00.583Z,1.90
2022-12-26T02:07:11.245Z,2.08
2022-12-26T02:08:18.196Z,1.48
2022-12-26T02:09:20.509Z,2.42
2022-12-26T02:10:27.596Z,1.98
2022-12-26T02:11:41.453Z,1.98
2022-12-26T02:12:44.004Z,2.30
2022-12-26T02:13:50.588Z,2.10
2022-12-26T02:14:52.255Z,2.17
2022-12-26T02:15:54.743Z,2.10
2022-12-26T02:16:56.475Z,1.98
2022-12-26T02:17:58.990Z,2.20
2022-12-26T02:19:00.662Z,2.15
2022-12-26T02:20:11.768Z,2.00
2022-12-26T02:21:42.831Z,2.10
2022-12-26T02:23:23.920Z,2.25
2022-12-26T02:24:56.740Z,2.20
2022-12-26T02:26:30.172Z,1.85
2022-12-26T02:28:00.454Z,2.00
2022-12-26T02:29:26.942Z,1.98
2022-12-26T02:30:42.807Z,2.40
2022-12-26T02:31:50.081Z,1.85
2022-12-26T02:33:09.032Z,2.00
2022-12-26T02:34:15.750Z,2.20
2022-12-26T02:35:29.568Z,2.03
2022-12-26T02:36:50.357Z,2.00
2022-12-26T02:38:00.766Z,1.90
2022-12-26T02:39:45.587Z,1.83
2022-12-26T02:40:52.975Z,2.30
2022-12-26T02:42:09.499Z,1.88
2022-12-26T02:43:22.689Z,2.03
2022-12-26T02:44:46.029Z,2.00
2022-12-26T02:46:17.825Z,2.30
2022-12-26T02:47:27.421Z,2.00
2022-12-26T02:48:37.290Z,1.92
2022-12-26T02:50:13.167Z,1.97
2022-12-26T02:51:41.889Z,2.05
2022-12-26T02:53:13.354Z,2.13
2022-12-26T02:54:41.224Z,1.90
2022-12-26T02:56:05.868Z,2.25
2022-12-26T02:57:35.052Z,2.25
2022-12-26T02:59:00.988Z,2.00
2022-12-26T03:00:26.495Z,1.90
2022-12-26T03:01:55.234Z,2.63
2022-12-26T03:03:20.544Z,2.30
2022-12-26T03:04:42.906Z,2.10
2022-12-26T03:06:10.546Z,2.00
2022-12-26T03:07:39.239Z,1.90
2022-12-26T03:09:07.721Z,2.10
2022-12-26T03:10:36.746Z,2.00
2022-12-26T03:12:00.163Z,2.28
2022-12-26T03:13:13.456Z,1.85
2022-12-26T03:14:19.007Z,1.90
2022-12-26T03:15:24.976Z,2.00
2022-12-26T03:16:45.718Z,2.08
2022-12-26T03:17:58.110Z,2.15
2022-12-26T03:19:05.683Z,1.88
2022-12-26T03:20:13.716Z,2.42
2022-12-26T03:21:18.419Z,2.05
2022-12-26T03:22:33.956Z,2.10
2022-12-26T03:23:41.357Z,2.05
2022-12-26T03:24:57.912Z,2.15
2022-12-26T03:26:22.533Z,2.40
2022-12-26T03:27:25.071Z,2.03
2022-12-26T03:28:27.140Z,2.13
2022-12-26T03:29:47.163Z,2.10
2022-12-26T03:30:49.030Z,2.00
2022-12-26T03:31:50.651Z,2.00
2022-12-26T03:32:58.670Z,2.17
2022-12-26T03:34:18.564Z,2.00
2022-12-26T03:35:21.049Z,1.90
2022-12-26T03:36:36.263Z,2.03
2022-12-26T03:37:50.350Z,2.05
2022-12-26T03:39:07.624Z,2.00
2022-12-26T03:40:43.798Z,2.40
2022-12-26T03:42:13.675Z,2.00
2022-12-26T03:43:46.548Z,2.05
2022-12-26T03:45:15.071Z,2.10
2022-12-26T03:46:41.711Z,1.90
2022-12-26T03:48:13.546Z,2.13
2022-12-26T03:49:41.005Z,2.00
2022-12-26T03:51:05.732Z,1.90
2022-12-26T03:52:33.101Z,1.98
2022-12-26T03:54:06.738Z,1.80
2022-12-26T03:55:33.893Z,2.20
2022-12-26T03:56:59.450Z,1.92
2022-12-26T03:58:25.469Z,2.22
2022-12-26T04:00:03.900Z,2.28
2022-12-26T04:01:29.096Z,1.98
2022-12-26T04:02:52.512Z,1.98
2022-12-26T04:04:16.296Z,1.83
2022-12-26T04:05:39.130Z,1.80
2022-12-26T04:07:04.082Z,2.10
2022-12-26T04:08:38.238Z,1.80
2022-12-26T04:10:02.495Z,2.00
2022-12-26T04:11:32.089Z,2.28
2022-12-26T04:12:56.249Z,2.13
2022-12-26T04:14:23.338Z,1.88
2022-12-26T04:15:50.925Z,2.40
2022-12-26T04:17:17.970Z,2.00
2022-12-26T04:18:45.942Z,2.03
2022-12-26T04:20:01.186Z,2.00
2022-12-26T04:21:30.456Z,1.88
2022-12-26T04:22:59.143Z,1.90
2022-12-26T04:24:26.231Z,2.00
2022-12-26T04:25:51.759Z,1.90
2022-12-26T04:27:17.561Z,2.08
2022-12-26T04:28:38.494Z,1.98
2022-12-26T04:31:25.261Z,2.20
2022-12-26T04:32:54.178Z,2.17
2022-12-26T04:34:20.039Z,1.70
2022-12-26T04:35:50.782Z,1.70
2022-12-26T04:37:18.010Z,2.10
2022-12-26T04:38:42.944Z,2.00
2022-12-26T04:40:07.436Z,2.03
2022-12-26T04:41:30.227Z,2.17
2022-12-26T04:42:54.622Z,1.67
2022-12-26T04:44:07.538Z,2.10
2022-12-26T04:45:10.952Z,1.80
2022-12-26T04:46:17.940Z,2.00
2022-12-26T04:47:19.642Z,2.03
2022-12-26T04:48:39.861Z,1.77
2022-12-26T04:50:03.515Z,1.70
2022-12-26T04:51:06.542Z,1.67
2022-12-26T04:52:11.993Z,1.70
2022-12-26T04:53:16.114Z,2.00
2022-12-26T04:54:18.499Z,2.00
2022-12-26T04:55:22.830Z,1.75
2022-12-26T04:56:24.432Z,2.00
2022-12-26T04:57:26.849Z,2.22
2022-12-26T04:58:31.284Z,2.10
2022-12-26T04:59:34.366Z,1.70
2022-12-26T05:00:38.611Z,2.17
2022-12-26T05:02:02.107Z,1.90
2022-12-26T05:03:36.839Z,2.40
2022-12-26T05:04:57.151Z,2.45
2022-12-26T05:06:17.425Z,1.98
2022-12-26T05:07:41.677Z,2.20
2022-12-26T05:09:04.107Z,2.10
2022-12-26T05:10:11.449Z,2.28
2022-12-26T05:11:12.975Z,2.00
2022-12-26T05:12:15.453Z,2.20
2022-12-26T05:13:17.071Z,2.00
2022-12-26T05:14:19.634Z,1.92
2022-12-26T05:15:21.774Z,1.98
2022-12-26T05:16:43.765Z,1.80
2022-12-26T05:18:04.164Z,1.95
2022-12-26T05:19:26.013Z,1.80
2022-12-26T05:20:42.711Z,2.13
2022-12-26T05:22:03.060Z,2.50
2022-12-26T05:23:34.049Z,2.15
2022-12-26T05:24:57.971Z,1.65
2022-12-26T05:26:18.132Z,1.90
2022-12-26T05:27:39.402Z,1.80
2022-12-26T05:28:44.870Z,2.53
2022-12-26T05:29:48.957Z,2.10
2022-12-26T05:30:51.452Z,1.88
2022-12-26T05:31:55.064Z,1.90
2022-12-26T05:33:15.258Z,2.10
2022-12-26T05:34:20.812Z,2.10
2022-12-26T05:35:22.498Z,2.00
2022-12-26T05:36:28.634Z,2.17
2022-12-26T05:37:30.237Z,1.98
2022-12-26T05:38:34.132Z,2.13
2022-12-26T05:39:35.637Z,1.80
2022-12-26T05:40:38.200Z,2.20
2022-12-26T05:41:40.607Z,2.20
2022-12-26T05:42:43.328Z,1.70
2022-12-26T05:43:48.673Z,1.63
2022-12-26T05:44:51.200Z,2.03
2022-12-26T05:45:52.722Z,2.42
2022-12-26T05:46:55.317Z,2.20
2022-12-26T05:47:58.402Z,1.90
2022-12-26T05:49:01.367Z,2.15
2022-12-26T05:50:05.911Z,2.38
2022-12-26T05:51:09.077Z,2.17
2022-12-26T05:52:10.591Z,1.88
2022-12-26T05:53:13.222Z,1.80
2022-12-26T05:54:17.204Z,1.77
2022-12-26T05:55:18.736Z,2.30
2022-12-26T05:56:22.181Z,2.33
2022-12-26T05:57:23.671Z,2.53
2022-12-26T05:58:26.132Z,2.17
2022-12-26T05:59:28.161Z,2.15
2022-12-26T06:00:31.507Z,1.83
2022-12-26T06:01:34.070Z,2.50
2022-12-26T06:02:35.936Z,2.25
2022-12-26T06:03:39.297Z,2.30
2022-12-26T06:04:41.846Z,2.10
2022-12-26T06:05:43.415Z,2.00
2022-12-26T06:06:45.911Z,2.40
2022-12-26T06:07:48.893Z,2.00
2022-12-26T06:08:52.752Z,2.03
2022-12-26T06:09:55.602Z,2.10
2022-12-26T06:10:58.197Z,2.30
2022-12-26T06:11:59.721Z,2.28
2022-12-26T06:13:02.550Z,2.25
2022-12-26T06:14:04.818Z,2.15
2022-12-26T06:15:08.360Z,2.42
2022-12-26T06:16:12.410Z,1.90
2022-12-26T06:17:15.437Z,2.13
2022-12-26T06:18:17.108Z,2.30
2022-12-26T06:19:19.665Z,2.20
2022-12-26T06:20:21.233Z,2.08
2022-12-26T06:21:23.828Z,2.20
2022-12-26T06:22:25.400Z,1.90
2022-12-26T06:23:29.572Z,2.20
2022-12-26T06:24:31.568Z,2.15
2022-12-26T06:25:35.876Z,2.00
2022-12-26T06:26:37.854Z,2.08
2022-12-26T06:27:40.417Z,2.40
2022-12-26T06:28:43.578Z,2.00
2022-12-26T06:29:46.982Z,2.00
2022-12-26T06:30:48.554Z,2.03
2022-12-26T06:31:51.197Z,2.33
2022-12-26T06:32:52.806Z,1.98
2022-12-26T06:33:58.356Z,2.35
2022-12-26T06:34:59.948Z,1.88
2022-12-26T06:36:06.856Z,2.00
2022-12-26T06:37:09.410Z,2.15
2022-12-26T06:38:11.534Z,2.38
2022-12-26T06:39:13.991Z,2.15
2022-12-26T06:40:15.620Z,2.20
2022-12-26T06:41:21.772Z,2.05
2022-12-26T06:42:23.481Z,2.20
2022-12-26T06:43:25.938Z,2.05
2022-12-26T06:44:27.551Z,2.30
2022-12-26T06:45:30.069Z,2.10
2022-12-26T06:46:31.648Z,2.00
2022-12-26T06:47:36.029Z,2.25
2022-12-26T06:48:39.796Z,2.10
2022-12-26T06:49:44.475Z,2.35
2022-12-26T06:50:45.999Z,2.20
2022-12-26T06:51:48.524Z,2.03
2022-12-26T06:52:50.027Z,2.17
2022-12-26T06:53:53.785Z,2.00
2022-12-26T06:54:55.268Z,1.98
2022-12-26T06:56:06.811Z,2.33
2022-12-26T06:57:09.729Z,2.17
2022-12-26T06:58:12.318Z,2.10
2022-12-26T06:59:14.822Z,2.55
2022-12-26T07:00:16.613Z,2.40
2022-12-26T07:01:20.468Z,2.15
2022-12-26T07:02:22.211Z,2.35
2022-12-26T07:03:26.270Z,2.42
2022-12-26T07:04:28.018Z,2.22
2022-12-26T07:05:30.571Z,2.30
2022-12-26T07:06:34.192Z,2.10
2022-12-26T07:07:36.694Z,2.55
2022-12-26T07:08:38.789Z,2.28
2022-12-26T07:09:41.302Z,2.55
2022-12-26T07:10:42.819Z,1.90
2022-12-26T07:11:48.172Z,2.20
2022-12-26T07:12:51.097Z,2.20
2022-12-26T07:13:55.151Z,2.58
2022-12-26T07:15:01.492Z,2.30
2022-12-26T07:16:04.876Z,2.20
2022-12-26T07:17:06.454Z,2.10
2022-12-26T07:18:11.152Z,2.60
2022-12-26T07:19:14.282Z,2.05
2022-12-26T07:20:16.979Z,1.90
2022-12-26T07:21:18.752Z,2.25
2022-12-26T07:22:21.263Z,2.50
2022-12-26T07:23:23.008Z,2.22
2022-12-26T07:24:25.476Z,2.20
2022-12-26T07:25:27.022Z,2.20
2022-12-26T07:26:31.272Z,2.30
2022-12-26T07:27:32.824Z,2.17
2022-12-26T07:28:36.629Z,2.10
2022-12-26T07:29:38.137Z,2.65
2022-12-26T07:30:40.603Z,2.20
2022-12-26T07:31:42.527Z,2.13
2022-12-26T07:32:45.005Z,2.13
2022-12-26T07:33:48.911Z,1.98
2022-12-26T07:34:51.377Z,2.03
2022-12-26T07:35:59.267Z,2.17
2022-12-26T07:37:04.093Z,1.90
2022-12-26T07:38:05.703Z,2.05
2022-12-26T07:39:11.160Z,1.90
2022-12-26T07:40:12.989Z,2.10
2022-12-26T07:41:33.294Z,2.08
2022-12-26T07:42:37.409Z,2.08
2022-12-26T07:43:40.512Z,1.85
2022-12-26T07:44:45.917Z,2.05
2022-12-26T07:45:50.871Z,1.95
2022-12-26T07:46:53.997Z,2.20
2022-12-26T07:47:57.632Z,2.22
2022-12-26T07:49:00.700Z,1.92
2022-12-26T07:50:02.264Z,2.10
2022-12-26T07:51:06.643Z,2.17
2022-12-26T07:52:08.144Z,2.10
2022-12-26T07:53:10.669Z,2.22
2022-12-26T07:54:12.608Z,2.00
2022-12-26T07:55:15.483Z,2.10
2022-12-26T07:56:20.030Z,2.15
2022-12-26T07:57:47.413Z,1.90
2022-12-26T07:58:48.638Z,2.15
2022-12-26T07:59:53.639Z,2.10
2022-12-26T08:00:55.693Z,2.28
2022-12-26T08:02:04.819Z,1.77
2022-12-26T08:03:08.444Z,2.03
2022-12-26T08:04:10.715Z,2.22
2022-12-26T08:05:14.148Z,2.20
2022-12-26T08:06:15.762Z,1.85
2022-12-26T08:07:18.272Z,2.00
2022-12-26T08:08:19.800Z,2.53
2022-12-26T08:09:22.312Z,1.85
2022-12-26T08:10:23.883Z,2.92
2022-12-26T08:11:26.690Z,2.10
2022-12-26T08:12:28.257Z,2.28
2022-12-26T08:13:31.293Z,2.15
2022-12-26T08:14:34.173Z,2.08
2022-12-26T08:15:39.761Z,2.22
2022-12-26T08:16:41.308Z,2.10
2022-12-26T08:17:43.814Z,2.08
2022-12-26T08:18:45.430Z,1.90
2022-12-26T08:19:48.003Z,1.88
2022-12-26T08:20:49.728Z,2.03
2022-12-26T08:21:52.214Z,2.30
2022-12-26T08:22:53.724Z,2.28
2022-12-26T08:23:56.152Z,2.28
2022-12-26T08:24:57.721Z,1.95
2022-12-26T08:26:00.213Z,2.25
2022-12-26T08:27:05.705Z,2.30
2022-12-26T08:28:07.315Z,2.05
2022-12-26T08:29:11.688Z,1.63
2022-12-26T08:30:14.568Z,1.90
2022-12-26T08:31:17.660Z,2.10
2022-12-26T08:32:19.208Z,1.77
2022-12-26T08:33:21.710Z,2.15
2022-12-26T08:34:23.303Z,1.80
2022-12-26T08:35:25.820Z,2.08
2022-12-26T08:36:27.457Z,1.70
2022-12-26T08:37:30.541Z,1.80
2022-12-26T08:38:34.085Z,1.92
2022-12-26T08:39:36.792Z,3.70
2022-12-26T08:40:45.721Z,2.60
2022-12-26T08:41:48.219Z,2.63
2022-12-26T08:43:03.342Z,2.00
2022-12-26T08:44:29.169Z,2.00
2022-12-26T08:45:33.217Z,2.15
2022-12-26T08:46:34.780Z,1.55
2022-12-26T08:47:37.289Z,2.08
2022-12-26T08:48:40.381Z,1.75
2022-12-26T08:49:43.012Z,1.80
2022-12-26T08:50:44.489Z,2.00
2022-12-26T08:51:47.039Z,1.42
2022-12-26T08:52:48.625Z,1.63
2022-12-26T08:53:52.317Z,2.20
2022-12-26T08:54:53.952Z,1.63
2022-12-26T08:55:57.287Z,1.98
2022-12-26T08:56:59.769Z,1.63
2022-12-26T08:58:03.957Z,1.98
2022-12-26T08:59:06.565Z,2.03
2022-12-26T09:00:09.767Z,1.90
2022-12-26T09:01:16.305Z,1.75
2022-12-26T09:02:21.440Z,2.00
2022-12-26T09:03:25.665Z,1.90
2022-12-26T09:04:30.438Z,1.90
2022-12-26T09:05:32.243Z,1.88
2022-12-26T09:06:35.913Z,2.13
2022-12-26T09:07:37.553Z,1.90
2022-12-26T09:08:43.854Z,2.20
2022-12-26T09:09:45.477Z,2.17
2022-12-26T09:10:48.040Z,2.00
2022-12-26T09:11:50.605Z,2.10
2022-12-26T09:12:52.211Z,2.20
2022-12-26T09:13:55.146Z,2.35
2022-12-26T09:14:58.532Z,2.10
2022-12-26T09:16:06.898Z,1.95
2022-12-26T09:17:10.248Z,2.17
2022-12-26T09:18:13.028Z,1.95
2022-12-26T09:19:21.770Z,2.10
2022-12-26T09:20:29.015Z,1.90
2022-12-26T09:21:32.598Z,2.10
2022-12-26T09:22:56.414Z,1.88
2022-12-26T09:23:58.987Z,1.98
2022-12-26T09:25:01.605Z,1.70
2022-12-26T09:26:10.885Z,2.13
2022-12-26T09:27:16.712Z,2.00
2022-12-26T09:28:18.240Z,1.83
2022-12-26T09:29:20.958Z,2.10
2022-12-26T09:30:23.038Z,1.75
2022-12-26T09:31:27.052Z,1.95
2022-12-26T09:32:33.712Z,2.05
2022-12-26T09:33:37.624Z,2.00
2022-12-26T09:34:39.373Z,3.05
2022-12-26T09:35:42.199Z,1.85
2022-12-26T09:36:43.798Z,1.90
2022-12-26T09:37:46.665Z,2.00
2022-12-26T09:38:49.180Z,2.10
2022-12-26T09:39:51.649Z,1.83
2022-12-26T09:41:05.422Z,1.90
2022-12-26T09:42:21.046Z,1.80
2022-12-26T09:43:29.714Z,1.65
2022-12-26T09:44:44.756Z,1.90
2022-12-26T09:45:56.676Z,2.03
2022-12-26T09:47:09.663Z,2.30
2022-12-26T09:48:19.678Z,1.77
2022-12-26T09:49:25.642Z,1.90
2022-12-26T09:50:30.986Z,1.60
2022-12-26T09:51:34.643Z,2.08
2022-12-26T09:52:44.286Z,1.90
2022-12-26T09:53:47.636Z,2.40
2022-12-26T09:54:57.141Z,2.05
2022-12-26T09:56:02.244Z,1.70
2022-12-26T09:57:14.889Z,2.05
2022-12-26T09:58:25.838Z,1.80
2022-12-26T09:59:29.669Z,1.70
2022-12-26T10:00:43.656Z,2.03
2022-12-26T10:01:48.931Z,1.95
2022-12-26T10:02:54.779Z,1.92
2022-12-26T10:04:00.925Z,2.30
2022-12-26T10:05:02.616Z,2.20
2022-12-26T10:06:12.650Z,1.95
2022-12-26T10:07:22.935Z,1.77
2022-12-26T10:08:31.443Z,1.95
2022-12-26T10:09:56.830Z,1.60
2022-12-26T10:11:02.063Z,2.28
2022-12-26T10:12:22.573Z,1.70
2022-12-26T10:13:33.421Z,1.70
2022-12-26T10:15:48.940Z,1.75
2022-12-26T10:16:55.178Z,1.98
2022-12-26T10:18:09.184Z,1.63
2022-12-26T10:19:32.487Z,1.80
2022-12-26T10:20:46.183Z,2.08
2022-12-26T10:21:58.306Z,1.92
2022-12-26T10:23:27.258Z,1.98
2022-12-26T10:24:33.624Z,2.47
2022-12-26T10:25:42.477Z,1.90
2022-12-26T10:26:51.406Z,2.00
2022-12-26T10:27:53.161Z,1.95
2022-12-26T10:29:00.353Z,1.90
2022-12-26T10:30:07.253Z,1.77
2022-12-26T10:31:17.598Z,1.95
2022-12-26T10:32:27.867Z,1.90
2022-12-26T10:33:39.393Z,2.00
2022-12-26T10:34:44.276Z,1.90
2022-12-26T10:35:47.741Z,2.60
2022-12-26T10:36:51.094Z,1.85
2022-12-26T10:37:54.572Z,2.35
2022-12-26T10:38:59.811Z,2.28
2022-12-26T10:40:15.159Z,1.80
2022-12-26T10:41:23.128Z,1.83
2022-12-26T10:42:34.150Z,2.15
2022-12-26T10:43:41.163Z,2.42
2022-12-26T10:44:43.699Z,1.13
2022-12-26T10:45:50.892Z,1.30
2022-12-26T10:47:14.572Z,0.70
2022-12-26T10:48:16.947Z,1.08
2022-12-26T10:49:22.887Z,0.70
2022-12-26T10:50:30.508Z,0.50
2022-12-26T10:51:33.731Z,0.80
2022-12-26T10:52:39.935Z,0.60
2022-12-26T10:53:44.156Z,0.90
2022-12-26T10:54:49.364Z,0.90
2022-12-26T10:55:51.840Z,0.88
2022-12-26T10:56:55.595Z,1.00
2022-12-26T10:58:04.129Z,1.00
2022-12-26T10:59:09.457Z,1.40
2022-12-26T11:00:17.723Z,0.90
2022-12-26T11:01:34.345Z,1.30
2022-12-26T11:02:37.080Z,1.10
2022-12-26T11:03:54.029Z,1.00
2022-12-26T11:06:26.060Z,1.20
2022-12-26T11:07:30.988Z,1.13
2022-12-26T11:08:43.038Z,1.00
2022-12-26T11:09:46.052Z,1.10
2022-12-26T11:11:03.081Z,0.60
2022-12-26T11:12:05.519Z,0.80
2022-12-26T11:13:20.810Z,0.85
2022-12-26T11:14:35.610Z,0.50
2022-12-26T11:15:41.908Z,0.60
2022-12-26T11:16:43.583Z,0.50
2022-12-26T11:17:48.117Z,0.80
2022-12-26T11:18:52.187Z,0.50
2022-12-26T11:20:23.823Z,0.50
2022-12-26T11:21:29.671Z,0.43
2022-12-26T11:22:31.986Z,0.43
2022-12-26T11:23:34.538Z,0.60
2022-12-26T11:24:36.110Z,0.47
2022-12-26T11:25:49.601Z,0.30
2022-12-26T11:26:51.195Z,0.70
2022-12-26T11:27:55.634Z,0.40
2022-12-26T11:29:11.463Z,0.60
2022-12-26T11:30:26.021Z,0.32
2022-12-26T11:31:30.915Z,0.30
2022-12-26T11:32:32.700Z,0.60
2022-12-26T11:33:37.266Z,0.20
2022-12-26T11:34:45.995Z,0.50
2022-12-26T11:35:55.240Z,0.30
2022-12-26T11:36:59.325Z,0.43
2022-12-26T11:38:03.087Z,0.40
2022-12-26T11:39:08.885Z,0.70
2022-12-26T11:40:20.149Z,0.43
2022-12-26T11:41:39.709Z,0.60
2022-12-26T11:42:41.447Z,0.50
2022-12-26T11:43:44.262Z,0.40
2022-12-26T11:44:52.317Z,0.35
2022-12-26T11:45:53.965Z,0.40
2022-12-26T11:47:01.144Z,0.40
2022-12-26T11:48:02.837Z,0.40
2022-12-26T11:49:06.609Z,0.32
2022-12-26T11:50:12.051Z,0.50
2022-12-26T11:51:14.944Z,0.60
2022-12-26T11:52:39.740Z,0.60
2022-12-26T11:53:43.947Z,0.50
2022-12-26T11:54:53.827Z,0.50
2022-12-26T11:56:01.705Z,0.60
2022-12-26T11:57:17.848Z,0.70
2022-12-26T11:58:25.351Z,0.63
2022-12-26T11:59:26.894Z,0.57
2022-12-26T12:00:30.291Z,0.57
2022-12-26T12:01:32.119Z,0.40
2022-12-26T12:02:36.537Z,0.50
2022-12-26T12:03:48.573Z,0.50
2022-12-26T12:04:54.693Z,0.40
2022-12-26T12:06:03.289Z,0.40
2022-12-26T12:07:14.408Z,0.43
2022-12-26T12:08:35.212Z,0.50
2022-12-26T12:09:45.310Z,0.43
2022-12-26T12:11:00.854Z,0.77
2022-12-26T12:12:11.785Z,0.50
2022-12-26T12:13:21.484Z,0.40
2022-12-26T12:14:36.144Z,0.38
2022-12-26T12:15:43.822Z,0.50
2022-12-26T12:16:56.588Z,0.38
2022-12-26T12:18:05.294Z,0.43
2022-12-26T12:19:21.727Z,0.50
2022-12-26T12:20:32.628Z,0.40
2022-12-26T12:21:42.122Z,0.40
2022-12-26T12:22:59.334Z,0.50
2022-12-26T12:24:31.064Z,0.45
2022-12-26T12:25:43.207Z,0.50
2022-12-26T12:27:01.622Z,0.63
2022-12-26T12:28:19.963Z,0.50
2022-12-26T12:29:35.473Z,0.57
2022-12-26T12:30:45.673Z,0.45
2022-12-26T12:32:07.142Z,0.63
2022-12-26T12:33:36.927Z,0.60
2022-12-26T12:34:56.372Z,0.50
2022-12-26T12:36:09.515Z,0.50
2022-12-26T12:37:24.348Z,0.63
2022-12-26T12:38:30.509Z,0.40
2022-12-26T12:39:47.067Z,0.57
2022-12-26T12:40:55.996Z,1.02
2022-12-26T12:42:23.494Z,0.85
2022-12-26T12:43:31.416Z,1.02
2022-12-26T12:44:56.577Z,0.68
2022-12-26T12:46:11.557Z,0.70
2022-12-26T12:47:24.645Z,0.50
2022-12-26T12:48:42.935Z,0.73
2022-12-26T12:49:59.907Z,0.65
2022-12-26T12:51:12.308Z,0.85
2022-12-26T12:52:25.215Z,0.63
2022-12-26T12:53:52.964Z,0.60
2022-12-26T12:55:29.750Z,0.80
2022-12-26T12:56:42.573Z,0.30
2022-12-26T12:57:50.279Z,0.60
2022-12-26T12:59:02.080Z,0.60
2022-12-26T13:00:13.738Z,0.57
2022-12-26T13:01:24.244Z,0.93
2022-12-26T13:02:32.262Z,0.50
2022-12-26T13:03:42.173Z,0.40
2022-12-26T13:04:49.557Z,0.50
2022-12-26T13:05:58.655Z,0.45
2022-12-26T13:07:06.187Z,0.30
2022-12-26T13:08:15.121Z,0.40
2022-12-26T13:09:21.961Z,0.50
2022-12-26T13:10:30.399Z,0.40
2022-12-26T13:11:38.198Z,0.70
2022-12-26T13:12:43.992Z,0.70
2022-12-26T13:13:54.039Z,1.00
2022-12-26T13:14:58.306Z,0.43
2022-12-26T13:16:07.204Z,0.63
2022-12-26T13:17:13.227Z,0.70
2022-12-26T13:18:19.762Z,0.50
2022-12-26T13:19:25.599Z,0.68
2022-12-26T13:20:35.414Z,0.60
2022-12-26T13:21:40.819Z,0.60
2022-12-26T13:23:10.238Z,0.80
2022-12-26T13:24:25.992Z,0.70
2022-12-26T13:25:35.810Z,0.60
2022-12-26T13:26:40.820Z,0.57
2022-12-26T13:27:43.217Z,0.77
2022-12-26T13:28:57.626Z,0.70
2022-12-26T13:29:59.208Z,0.80
2022-12-26T13:31:01.732Z,0.80
2022-12-26T13:32:14.189Z,0.50
2022-12-26T13:33:15.975Z,0.70
2022-12-26T13:34:20.780Z,0.60
2022-12-26T13:35:52.321Z,0.60
2022-12-26T13:36:56.640Z,0.75
2022-12-26T13:37:58.647Z,0.60
2022-12-26T13:39:27.919Z,0.68
2022-12-26T13:40:32.390Z,0.75
2022-12-26T13:41:54.207Z,0.80
2022-12-26T13:43:19.344Z,0.60
2022-12-26T13:44:31.092Z,0.73
2022-12-26T13:45:48.833Z,0.60
2022-12-26T13:46:56.674Z,0.82
2022-12-26T13:48:00.670Z,0.68
2022-12-26T13:49:04.478Z,0.45
2022-12-26T13:50:48.512Z,0.88
2022-12-26T13:51:58.881Z,1.00
2022-12-26T13:53:00.559Z,0.77
2022-12-26T13:54:11.691Z,0.80
2022-12-26T13:55:44.108Z,0.50
2022-12-26T13:57:17.133Z,0.60
2022-12-26T13:58:45.912Z,0.60
2022-12-26T14:00:04.099Z,0.68
2022-12-26T14:01:18.910Z,0.70
2022-12-26T14:04:35.330Z,0.70
2022-12-26T14:05:44.168Z,0.63
2022-12-26T14:07:01.217Z,0.60
2022-12-26T14:08:10.882Z,0.80
2022-12-26T14:09:29.825Z,0.98
2022-12-26T14:10:40.900Z,0.75
2022-12-26T14:12:09.625Z,0.70
2022-12-26T14:13:34.673Z,1.00
2022-12-26T14:14:53.856Z,0.90
2022-12-26T14:16:03.572Z,1.10
2022-12-26T14:17:15.616Z,1.23
2022-12-26T14:18:32.629Z,0.90
2022-12-26T14:19:43.583Z,1.00
2022-12-26T14:20:52.728Z,0.80
2022-12-26T14:22:01.472Z,0.70
2022-12-26T14:23:16.878Z,1.00
2022-12-26T14:24:30.094Z,0.80
2022-12-26T14:25:38.817Z,1.20
2022-12-26T14:26:47.931Z,1.40
2022-12-26T14:27:55.897Z,1.70
2022-12-26T14:29:10.240Z,1.40
2022-12-26T14:30:23.052Z,1.27
2022-12-26T14:31:32.973Z,1.70
2022-12-26T14:32:42.099Z,1.10
2022-12-26T14:33:51.891Z,1.30
2022-12-26T14:35:02.952Z,1.17
2022-12-26T14:36:20.137Z,1.67
2022-12-26T14:37:30.957Z,2.20
2022-12-26T14:39:53.958Z,2.33
2022-12-26T14:41:04.616Z,1.80
2022-12-26T14:42:36.056Z,1.40
2022-12-26T14:43:39.342Z,1.65
2022-12-26T14:44:44.187Z,1.63
2022-12-26T14:45:50.672Z,1.40
2022-12-26T14:47:04.293Z,1.15
2022-12-26T14:48:39.329Z,1.05
2022-12-26T14:49:43.264Z,1.00
2022-12-26T14:50:49.268Z,1.02
2022-12-26T14:51:52.116Z,1.13
2022-12-26T14:52:53.777Z,1.20
2022-12-26T14:54:17.479Z,1.83
2022-12-26T14:55:52.217Z,2.03
2022-12-26T14:56:55.556Z,1.40
2022-12-26T14:58:18.562Z,1.67
2022-12-26T14:59:27.682Z,1.67
2022-12-26T15:00:35.149Z,1.70
2022-12-26T15:01:48.474Z,1.20
2022-12-26T15:03:09.624Z,1.10
2022-12-26T15:05:27.743Z,2.42
2022-12-26T15:07:14.123Z,1.50
2022-12-26T15:08:46.998Z,1.50
2022-12-26T15:10:14.715Z,1.40
2022-12-26T15:12:02.219Z,1.50
2022-12-26T15:13:32.198Z,1.17
2022-12-26T15:14:58.456Z,1.33
2022-12-26T15:16:24.467Z,1.65
2022-12-26T15:17:32.349Z,1.52
2022-12-26T15:19:16.514Z,1.70
2022-12-26T15:20:53.361Z,2.20
2022-12-26T15:22:23.772Z,1.77
2022-12-26T15:23:44.715Z,1.50
2022-12-26T15:25:21.240Z,1.75
2022-12-26T15:26:50.125Z,1.70
2022-12-26T15:28:20.268Z,1.83
2022-12-26T15:29:53.281Z,1.80
2022-12-26T15:31:10.317Z,1.90
2022-12-26T15:32:17.612Z,2.10
2022-12-26T15:33:26.107Z,2.30
2022-12-26T15:34:39.575Z,2.50
2022-12-26T15:35:56.745Z,2.13
2022-12-26T15:37:08.188Z,2.20